createdAt,value
2023-04-15T00:02:00.261Z,5.17
2023-04-15T00:04:31.708Z,4.60
2023-04-15T00:07:03.050Z,4.80
2023-04-15T00:09:37.535Z,9.37
2023-04-15T00:12:09.037Z,7.00
2023-04-15T00:14:46.022Z,4.30
2023-04-15T00:17:22.650Z,4.17
2023-04-15T00:19:50.657Z,4.17
2023-04-15T00:22:23.455Z,3.87
2023-04-15T00:24:56.586Z,5.53
2023-04-15T00:27:24.904Z,5.73
2023-04-15T00:29:52.908Z,4.57
2023-04-15T00:32:23.560Z,3.53
2023-04-15T00:34:56.344Z,5.20
2023-04-15T00:37:24.737Z,4.53
2023-04-15T00:39:59.695Z,6.27
2023-04-15T00:42:30.193Z,5.97
2023-04-15T00:45:01.147Z,4.40
2023-04-15T00:47:30.807Z,5.40
2023-04-15T00:49:59.797Z,5.53
2023-04-15T00:52:30.117Z,6.50
2023-04-15T00:54:58.971Z,5.27
2023-04-15T00:57:27.518Z,3.07
2023-04-15T00:59:57.233Z,5.37
2023-04-15T01:02:27.034Z,4.40
2023-04-15T01:04:57.704Z,5.07
2023-04-15T01:07:26.214Z,6.47
2023-04-15T01:09:54.247Z,4.10
2023-04-15T01:12:23.520Z,9.50
2023-04-15T01:14:51.818Z,6.20
2023-04-15T01:17:19.933Z,4.07
2023-04-15T01:19:58.811Z,3.80
2023-04-15T01:22:27.626Z,5.30
2023-04-15T01:24:57.626Z,6.13
2023-04-15T01:27:31.311Z,4.67
2023-04-15T01:30:05.436Z,5.37
2023-04-15T01:32:34.258Z,4.60
2023-04-15T01:35:21.156Z,4.60
2023-04-15T01:37:49.305Z,5.03
2023-04-15T01:40:21.060Z,5.23
2023-04-15T01:42:52.617Z,5.93
2023-04-15T01:45:21.839Z,4.37
2023-04-15T01:47:51.103Z,4.63
2023-04-15T01:50:27.152Z,7.13
2023-04-15T01:53:01.891Z,5.70
2023-04-15T01:55:32.981Z,3.70
2023-04-15T01:58:06.852Z,4.97
2023-04-15T02:00:42.957Z,7.73
2023-04-15T02:03:12.288Z,4.33
2023-04-15T02:05:47.196Z,5.57
2023-04-15T02:08:16.631Z,8.37
2023-04-15T02:10:47.619Z,6.93
2023-04-15T02:13:18.181Z,5.10
2023-04-15T02:15:50.749Z,4.67
2023-04-15T02:18:22.768Z,3.50
2023-04-15T02:20:54.765Z,4.27
2023-04-15T02:23:26.413Z,7.10
2023-04-15T02:25:55.713Z,4.27
2023-04-15T02:28:29.973Z,5.17
2023-04-15T02:31:06.914Z,6.10
2023-04-15T02:33:42.176Z,3.33
2023-04-15T02:36:15.224Z,4.90
2023-04-15T02:38:46.467Z,8.63
2023-04-15T02:41:23.334Z,5.33
2023-04-15T02:43:53.885Z,3.23
2023-04-15T02:46:28.595Z,3.67
2023-04-15T02:49:00.225Z,3.10
2023-04-15T02:51:34.832Z,3.57
2023-04-15T02:54:09.869Z,4.73
2023-04-15T02:56:40.871Z,3.87
2023-04-15T02:59:12.284Z,3.50
2023-04-15T03:01:56.513Z,3.83
2023-04-15T03:04:25.908Z,3.20
2023-04-15T03:06:57.664Z,2.80
2023-04-15T03:09:29.587Z,4.80
2023-04-15T03:12:01.974Z,3.77
2023-04-15T03:14:33.177Z,4.47
2023-04-15T03:17:10.001Z,5.23
2023-04-15T03:19:41.029Z,5.23
2023-04-15T03:22:12.810Z,2.87
2023-04-15T03:24:48.435Z,3.90
2023-04-15T03:27:24.399Z,5.07
2023-04-15T03:29:57.398Z,3.87
2023-04-15T03:32:34.593Z,5.13
2023-04-15T03:35:07.475Z,5.63
2023-04-15T03:37:41.531Z,6.43
2023-04-15T03:40:11.571Z,2.73
2023-04-15T03:42:48.806Z,3.00
2023-04-15T03:45:21.990Z,6.37
2023-04-15T03:47:54.160Z,4.47
2023-04-15T03:50:23.483Z,5.27
2023-04-15T03:52:52.669Z,5.07
2023-04-15T03:55:21.838Z,6.50
2023-04-15T03:57:57.952Z,4.83
2023-04-15T04:00:28.632Z,4.37
2023-04-15T04:03:03.036Z,4.33
2023-04-15T04:05:37.088Z,4.00
2023-04-15T04:08:08.586Z,6.90
2023-04-15T04:10:45.888Z,3.27
2023-04-15T04:13:17.607Z,5.63
2023-04-15T04:15:48.286Z,5.67
2023-04-15T04:18:23.414Z,6.10
2023-04-15T04:20:52.638Z,3.13
2023-04-15T04:23:21.816Z,4.13
2023-04-15T04:25:53.679Z,7.20
2023-04-15T04:28:25.965Z,4.43
2023-04-15T04:30:57.485Z,4.10
2023-04-15T04:33:34.680Z,4.20
2023-04-15T04:36:07.315Z,2.80
2023-04-15T04:38:39.546Z,5.10
2023-04-15T04:41:12.238Z,5.23
2023-04-15T04:43:41.457Z,3.17
2023-04-15T04:46:15.604Z,3.20
2023-04-15T04:48:49.334Z,4.57
2023-04-15T04:51:23.001Z,2.90
2023-04-15T04:53:54.852Z,4.57
2023-04-15T04:56:24.457Z,5.40
2023-04-15T04:58:58.525Z,5.13
2023-04-15T05:01:29.535Z,5.03
2023-04-15T05:04:02.023Z,6.53
2023-04-15T05:06:34.556Z,3.57
2023-04-15T05:09:08.110Z,4.63
2023-04-15T05:11:37.338Z,3.40
2023-04-15T05:14:06.535Z,6.03
2023-04-15T05:16:39.652Z,4.97
2023-04-15T05:19:10.890Z,4.63
2023-04-15T05:21:43.480Z,4.53
2023-04-15T05:24:12.664Z,5.33
2023-04-15T05:26:42.836Z,5.70
2023-04-15T05:29:14.125Z,4.27
2023-04-15T05:31:44.874Z,5.47
2023-04-15T05:34:15.900Z,5.47
2023-04-15T05:36:50.857Z,5.10
2023-04-15T05:39:21.705Z,5.27
2023-04-15T05:41:51.175Z,7.63
2023-04-15T05:44:27.273Z,4.53
2023-04-15T05:47:03.282Z,6.07
2023-04-15T05:49:38.013Z,4.43
2023-04-15T05:52:07.281Z,4.93
2023-04-15T05:54:36.589Z,5.10
2023-04-15T05:57:08.305Z,6.53
2023-04-15T05:59:42.672Z,7.00
2023-04-15T06:02:16.530Z,4.23
2023-04-15T06:04:48.845Z,6.80
2023-04-15T06:07:18.048Z,4.00
2023-04-15T06:09:51.571Z,5.07
2023-04-15T06:12:21.486Z,4.17
2023-04-15T06:14:51.156Z,4.57
2023-04-15T06:17:25.548Z,6.63
2023-04-15T06:19:59.954Z,7.30
2023-04-15T06:22:29.124Z,6.73
2023-04-15T06:25:01.297Z,6.50
2023-04-15T06:27:30.628Z,5.20
2023-04-15T06:29:59.852Z,6.27
2023-04-15T06:32:32.869Z,6.60
2023-04-15T06:35:04.961Z,5.33
2023-04-15T06:37:36.617Z,6.70
2023-04-15T06:40:06.771Z,7.20
2023-04-15T06:42:38.378Z,6.00
2023-04-15T06:45:08.847Z,4.97
2023-04-15T06:47:43.633Z,7.17
2023-04-15T06:50:13.536Z,7.27
2023-04-15T06:52:45.784Z,7.27
2023-04-15T06:55:24.050Z,6.83
2023-04-15T06:57:55.551Z,9.37
2023-04-15T07:00:25.386Z,8.50
2023-04-15T07:03:00.940Z,6.03
2023-04-15T07:05:33.962Z,7.83
2023-04-15T07:08:09.160Z,8.70
2023-04-15T07:10:38.547Z,7.70
2023-04-15T07:13:11.683Z,6.07
2023-04-15T07:15:50.115Z,8.83
2023-04-15T07:18:22.346Z,5.73
2023-04-15T07:20:54.839Z,5.73
2023-04-15T07:23:26.687Z,5.57
2023-04-15T07:26:01.494Z,12.40
2023-04-15T07:28:38.037Z,8.53
2023-04-15T07:31:10.224Z,4.80
2023-04-15T07:33:45.513Z,5.80
2023-04-15T07:36:19.684Z,5.37
2023-04-15T07:38:49.015Z,8.60
2023-04-15T07:41:20.709Z,4.37
2023-04-15T07:43:51.121Z,6.07
2023-04-15T07:46:21.672Z,7.67
2023-04-15T07:48:52.291Z,7.47
2023-04-15T07:51:22.046Z,6.60
2023-04-15T07:53:54.959Z,5.03
2023-04-15T07:56:29.674Z,7.53
2023-04-15T07:59:02.752Z,8.37
2023-04-15T08:01:38.939Z,9.03
2023-04-15T08:04:12.009Z,8.37
2023-04-15T08:06:52.774Z,5.17
2023-04-15T08:09:22.338Z,7.90
2023-04-15T08:11:51.790Z,5.63
2023-04-15T08:14:23.955Z,7.40
2023-04-15T08:17:00.351Z,8.23
2023-04-15T08:19:34.173Z,7.13
2023-04-15T08:22:06.639Z,9.73
2023-04-15T08:24:46.281Z,7.77
2023-04-15T08:27:18.045Z,6.07
2023-04-15T08:29:49.681Z,8.87
2023-04-15T08:32:21.736Z,8.00
2023-04-15T08:34:53.418Z,7.63
2023-04-15T08:37:24.924Z,6.43
2023-04-15T08:39:54.215Z,6.40
2023-04-15T08:42:28.722Z,6.10
2023-04-15T08:44:58.096Z,6.43
2023-04-15T08:47:34.553Z,10.03
2023-04-15T08:50:12.056Z,7.90
2023-04-15T08:52:44.521Z,8.57
2023-04-15T08:55:18.164Z,6.90
2023-04-15T08:57:50.897Z,10.80
2023-04-15T09:00:25.366Z,7.20
2023-04-15T09:02:55.239Z,7.07
2023-04-15T09:05:26.552Z,7.87
2023-04-15T09:07:58.705Z,7.40
2023-04-15T09:10:28.668Z,8.27
2023-04-15T09:12:58.457Z,7.17
2023-04-15T09:15:42.965Z,9.80
2023-04-15T09:18:15.883Z,6.63
2023-04-15T09:20:50.788Z,7.70
2023-04-15T09:23:20.097Z,5.37
2023-04-15T09:25:50.591Z,5.70
2023-04-15T09:28:28.747Z,3.33
2023-04-15T09:30:59.017Z,2.60
2023-04-15T09:33:31.730Z,3.17
2023-04-15T09:36:06.912Z,3.50
2023-04-15T09:38:36.348Z,4.93
2023-04-15T09:41:18.652Z,4.87
2023-04-15T09:43:53.631Z,2.63
2023-04-15T09:46:44.145Z,2.40
2023-04-15T09:49:16.120Z,2.10
2023-04-15T09:52:04.078Z,1.90
2023-04-15T09:54:36.436Z,1.87
2023-04-15T09:57:10.118Z,3.07
2023-04-15T09:59:45.660Z,2.00
2023-04-15T10:02:21.455Z,2.80
2023-04-15T10:04:54.350Z,2.17
2023-04-15T10:07:29.956Z,1.80
2023-04-15T10:10:05.611Z,1.93
2023-04-15T10:12:35.077Z,2.27
2023-04-15T10:15:17.111Z,3.57
2023-04-15T10:17:49.446Z,2.63
2023-04-15T10:20:23.811Z,2.47
2023-04-15T10:22:54.624Z,2.47
2023-04-15T10:25:27.384Z,2.87
2023-04-15T10:27:58.814Z,2.20
2023-04-15T10:30:29.255Z,1.67
2023-04-15T10:32:58.691Z,1.73
2023-04-15T10:35:33.025Z,1.97
2023-04-15T10:38:36.068Z,3.10
2023-04-15T10:41:20.731Z,2.30
2023-04-15T10:44:00.906Z,2.07
2023-04-15T10:46:37.909Z,3.23
2023-04-15T10:49:16.990Z,2.63
2023-04-15T10:51:49.130Z,1.77
2023-04-15T10:54:33.889Z,1.83
2023-04-15T10:57:16.606Z,1.60
2023-04-15T11:00:21.828Z,2.00
2023-04-15T11:02:54.650Z,1.77
2023-04-15T11:05:58.119Z,2.37
2023-04-15T11:08:54.861Z,2.73
2023-04-15T11:12:04.462Z,3.70
2023-04-15T11:14:36.625Z,3.83
2023-04-15T11:17:06.043Z,4.17
2023-04-15T11:19:40.967Z,2.67
2023-04-15T11:22:12.713Z,3.33
2023-04-15T11:24:53.279Z,3.37
2023-04-15T11:27:23.898Z,3.10
2023-04-15T11:29:56.576Z,3.30
2023-04-15T11:32:28.853Z,3.40
2023-04-15T11:34:59.998Z,2.80
2023-04-15T11:37:33.629Z,3.10
2023-04-15T11:40:04.865Z,4.10
2023-04-15T11:42:48.692Z,3.33
2023-04-15T11:45:24.224Z,3.40
2023-04-15T11:47:53.642Z,2.47
2023-04-15T11:50:24.639Z,2.83
2023-04-15T11:52:59.610Z,4.50
2023-04-15T11:55:36.920Z,4.20
2023-04-15T11:58:14.460Z,2.33
2023-04-15T12:00:49.759Z,4.17
2023-04-15T12:03:24.364Z,2.60
2023-04-15T12:06:16.586Z,3.17
2023-04-15T12:09:07.109Z,3.20
2023-04-15T12:11:37.634Z,3.13
2023-04-15T12:14:12.214Z,2.80
2023-04-15T12:16:49.011Z,2.70
2023-04-15T12:19:27.475Z,2.57
2023-04-15T12:22:02.718Z,3.47
2023-04-15T12:24:34.799Z,4.97
2023-04-15T12:27:06.768Z,2.53
2023-04-15T12:29:36.767Z,2.33
2023-04-15T12:32:13.786Z,2.33
2023-04-15T12:34:45.317Z,2.70
2023-04-15T12:37:14.553Z,2.30
2023-04-15T12:39:50.705Z,5.43
2023-04-15T12:42:25.248Z,2.50
2023-04-15T12:44:53.507Z,4.23
2023-04-15T12:47:23.133Z,3.00
2023-04-15T12:49:53.714Z,5.40
2023-04-15T12:52:26.238Z,2.93
2023-04-15T12:54:56.128Z,3.77
2023-04-15T12:57:26.386Z,3.90
2023-04-15T12:59:58.066Z,3.83
2023-04-15T13:02:29.011Z,4.10
2023-04-15T13:04:57.326Z,3.47
2023-04-15T13:07:28.258Z,3.90
2023-04-15T13:09:56.874Z,3.60
2023-04-15T13:12:27.787Z,4.07
2023-04-15T13:14:56.919Z,4.30
2023-04-15T13:17:29.281Z,4.83
2023-04-15T13:19:57.486Z,6.07
2023-04-15T13:22:25.772Z,4.90
2023-04-15T13:24:57.259Z,5.10
2023-04-15T13:27:30.841Z,5.30
2023-04-15T13:30:01.738Z,4.93
2023-04-15T13:32:33.993Z,7.53
2023-04-15T13:35:07.664Z,4.00
2023-04-15T13:37:39.457Z,4.23
2023-04-15T13:40:08.598Z,4.40
2023-04-15T13:42:37.431Z,4.23
2023-04-15T13:45:06.416Z,4.20
2023-04-15T13:47:42.018Z,3.97
2023-04-15T13:50:11.334Z,3.43
2023-04-15T13:52:39.841Z,5.70
2023-04-15T13:55:19.339Z,3.33
2023-04-15T13:57:51.975Z,4.60
2023-04-15T14:00:23.075Z,4.93
2023-04-15T14:02:52.662Z,4.37
2023-04-15T14:05:25.771Z,5.73
2023-04-15T14:08:03.499Z,5.83
2023-04-15T14:10:31.609Z,5.67
2023-04-15T14:12:59.669Z,5.90
2023-04-15T14:15:27.859Z,7.07
2023-04-15T14:18:02.056Z,7.17
2023-04-15T14:20:30.739Z,8.13
2023-04-15T14:23:01.406Z,7.53
2023-04-15T14:25:34.386Z,7.87
2023-04-15T14:28:04.818Z,7.63
2023-04-15T14:30:32.910Z,9.20
2023-04-15T14:33:08.617Z,7.97
2023-04-15T14:35:41.016Z,7.17
2023-04-15T14:38:12.098Z,6.00
2023-04-15T14:40:42.978Z,5.20
2023-04-15T14:43:15.069Z,5.23
2023-04-15T14:45:49.929Z,5.07
2023-04-15T14:48:22.524Z,4.97
2023-04-15T14:50:53.514Z,6.67
2023-04-15T14:53:21.552Z,5.00
2023-04-15T14:55:49.644Z,5.77
2023-04-15T14:58:19.307Z,7.13
2023-04-15T15:00:48.888Z,4.77
2023-04-15T15:03:17.050Z,4.57
2023-04-15T15:05:49.339Z,4.53
2023-04-15T15:08:20.171Z,4.30
2023-04-15T15:10:54.986Z,4.17
2023-04-15T15:13:26.307Z,7.00
2023-04-15T15:15:56.125Z,4.40
2023-04-15T15:18:25.634Z,4.57
2023-04-15T15:20:55.029Z,7.07
2023-04-15T15:23:26.022Z,9.03
2023-04-15T15:25:56.901Z,9.80
2023-04-15T15:28:25.588Z,10.23
2023-04-15T15:30:59.308Z,10.67
2023-04-15T15:33:30.991Z,11.93
2023-04-15T15:36:00.512Z,12.17
2023-04-15T15:38:31.019Z,12.13
2023-04-15T15:40:59.014Z,14.17
2023-04-15T15:43:38.044Z,13.33
2023-04-15T15:46:07.650Z,13.30
2023-04-15T15:48:35.942Z,12.90
2023-04-15T15:51:05.482Z,11.60
2023-04-15T15:53:39.472Z,11.73
2023-04-15T15:56:10.395Z,11.40
2023-04-15T15:58:45.082Z,14.27
2023-04-15T16:01:22.717Z,13.23
2023-04-15T16:03:51.102Z,14.40
2023-04-15T16:06:34.906Z,13.37
2023-04-15T16:09:10.734Z,15.73
2023-04-15T16:11:42.376Z,15.03
2023-04-15T16:14:10.736Z,16.77
2023-04-15T16:16:43.619Z,15.83
2023-04-15T16:19:15.424Z,15.60
2023-04-15T16:21:47.333Z,16.00
2023-04-15T16:24:18.278Z,14.03
2023-04-15T16:26:46.327Z,13.40
2023-04-15T16:29:14.388Z,13.83
2023-04-15T16:31:44.310Z,12.30
2023-04-15T16:34:18.646Z,12.10
2023-04-15T16:36:51.089Z,11.80
2023-04-15T16:39:19.785Z,12.43
2023-04-15T16:41:47.885Z,12.73
2023-04-15T16:44:18.107Z,12.20
2023-04-15T16:46:52.081Z,11.77
2023-04-15T16:49:23.204Z,12.27
2023-04-15T16:51:57.957Z,12.37
2023-04-15T16:54:25.969Z,12.37
2023-04-15T16:56:53.967Z,11.60
2023-04-15T16:59:23.656Z,11.27
2023-04-15T17:01:51.832Z,10.90
2023-04-15T17:04:20.050Z,11.87
2023-04-15T17:06:50.575Z,12.20
2023-04-15T17:09:22.578Z,11.73
2023-04-15T17:11:55.599Z,12.10
2023-04-15T17:14:23.854Z,12.17
2023-04-15T17:16:55.726Z,12.10
2023-04-15T17:19:23.822Z,12.17
2023-04-15T17:22:03.371Z,11.27
2023-04-15T17:24:38.673Z,11.17
2023-04-15T17:27:16.956Z,10.87
2023-04-15T17:29:48.759Z,11.50
2023-04-15T17:32:41.454Z,12.37
2023-04-15T17:35:29.576Z,12.00
2023-04-15T17:38:17.515Z,12.13
2023-04-15T17:41:07.708Z,12.70
2023-04-15T17:43:57.500Z,12.67
2023-04-15T17:46:51.738Z,13.90
2023-04-15T17:49:39.643Z,13.03
2023-04-15T17:52:27.723Z,12.47
2023-04-15T17:55:20.243Z,11.07
2023-04-15T17:58:11.154Z,11.53
2023-04-15T18:01:04.166Z,10.53
2023-04-15T18:03:52.257Z,9.33
2023-04-15T18:06:40.556Z,7.77
2023-04-15T18:09:28.591Z,8.20
2023-04-15T18:12:19.325Z,7.57
2023-04-15T18:15:14.476Z,6.53
2023-04-15T18:18:03.614Z,7.23
2023-04-15T18:20:37.490Z,6.70
2023-04-15T18:23:05.573Z,7.20
2023-04-15T18:25:38.290Z,8.60
2023-04-15T18:28:06.695Z,7.80
2023-04-15T18:30:40.324Z,7.80
2023-04-15T18:33:14.174Z,7.13
2023-04-15T18:35:58.984Z,7.87
2023-04-15T18:38:34.232Z,7.17
2023-04-15T18:41:02.392Z,9.33
2023-04-15T18:43:37.246Z,8.33
2023-04-15T18:46:10.046Z,7.90
2023-04-15T18:48:42.764Z,6.73
2023-04-15T18:51:19.044Z,6.53
2023-04-15T18:53:50.053Z,6.27
2023-04-15T18:56:20.842Z,6.13
2023-04-15T18:59:23.212Z,6.03
2023-04-15T19:01:38.202Z,7.00
2023-04-15T19:04:06.370Z,5.87
2023-04-15T19:06:34.812Z,6.40
2023-04-15T19:09:08.805Z,6.57
2023-04-15T19:11:39.036Z,7.33
2023-04-15T19:14:07.122Z,5.87
2023-04-15T19:16:38.073Z,9.20
2023-04-15T19:19:08.038Z,9.40
2023-04-15T19:21:37.775Z,10.57
2023-04-15T19:24:06.183Z,13.17
2023-04-15T19:26:37.628Z,13.60
2023-04-15T19:29:10.887Z,14.70
2023-04-15T19:31:43.106Z,13.20
2023-04-15T19:34:14.314Z,13.80
2023-04-15T19:36:42.457Z,14.73
2023-04-15T19:39:11.004Z,16.73
2023-04-15T19:41:39.298Z,13.63
2023-04-15T19:44:12.793Z,13.00
2023-04-15T19:46:41.034Z,12.67
2023-04-15T19:49:15.832Z,12.47
2023-04-15T19:51:51.870Z,10.83
2023-04-15T19:54:24.054Z,9.43
2023-04-15T19:56:52.083Z,9.70
2023-04-15T19:59:20.142Z,9.63
2023-04-15T20:01:50.850Z,9.33
2023-04-15T20:04:20.662Z,9.20
2023-04-15T20:06:54.375Z,9.73
2023-04-15T20:09:24.688Z,10.43
2023-04-15T20:12:09.622Z,10.47
2023-04-15T20:14:48.774Z,11.63
2023-04-15T20:17:24.987Z,8.53
2023-04-15T20:19:56.611Z,8.13
2023-04-15T20:22:26.565Z,9.07
2023-04-15T20:24:54.628Z,8.60
2023-04-15T20:27:22.645Z,9.23
2023-04-15T20:29:57.484Z,10.07
2023-04-15T20:32:26.855Z,14.23
2023-04-15T20:34:59.428Z,11.13
2023-04-15T20:37:35.066Z,11.83
2023-04-15T20:40:08.031Z,10.13
2023-04-15T20:42:36.065Z,9.43
2023-04-15T20:45:05.402Z,10.90
2023-04-15T20:47:39.381Z,10.93
2023-04-15T20:50:10.497Z,14.63
2023-04-15T20:52:40.231Z,9.43
2023-04-15T20:55:11.261Z,9.63
2023-04-15T20:57:42.955Z,11.40
2023-04-15T21:00:11.905Z,11.23
2023-04-15T21:02:43.053Z,12.93
2023-04-15T21:05:14.809Z,9.67
2023-04-15T21:07:44.475Z,10.17
2023-04-15T21:10:14.979Z,15.53
2023-04-15T21:12:46.134Z,11.07
2023-04-15T21:15:18.310Z,11.57
2023-04-15T21:17:52.584Z,11.93
2023-04-15T21:20:27.107Z,11.67
2023-04-15T21:22:56.970Z,13.47
2023-04-15T21:25:26.116Z,11.53
2023-04-15T21:27:56.043Z,13.00
2023-04-15T21:30:25.646Z,14.50
2023-04-15T21:32:53.694Z,11.97
2023-04-15T21:35:31.339Z,10.97
2023-04-15T21:38:01.780Z,20.60
2023-04-15T21:40:31.817Z,12.43
2023-04-15T21:43:11.126Z,13.87
2023-04-15T21:45:39.746Z,14.90
2023-04-15T21:48:13.472Z,15.33
2023-04-15T21:50:45.719Z,17.03
2023-04-15T21:53:16.536Z,11.40
2023-04-15T21:55:44.724Z,14.13
2023-04-15T21:58:14.715Z,19.23
2023-04-15T22:00:48.227Z,12.37
2023-04-15T22:03:18.260Z,15.23
2023-04-15T22:05:47.858Z,14.57
2023-04-15T22:08:18.824Z,14.70
2023-04-15T22:10:49.395Z,9.67
2023-04-15T22:13:23.169Z,13.13
2023-04-15T22:15:56.631Z,10.83
2023-04-15T22:18:27.746Z,12.53
2023-04-15T22:21:00.104Z,10.07
2023-04-15T22:23:28.115Z,10.00
2023-04-15T22:26:03.576Z,10.03
2023-04-15T22:28:31.710Z,11.87
2023-04-15T22:31:04.772Z,13.47
2023-04-15T22:33:34.536Z,11.63
2023-04-15T22:36:12.980Z,11.57
2023-04-15T22:38:42.746Z,11.27
2023-04-15T22:41:10.904Z,9.37
2023-04-15T22:43:41.869Z,11.97
2023-04-15T22:46:12.005Z,14.20
2023-04-15T22:48:40.468Z,9.40
2023-04-15T22:51:09.979Z,13.80
2023-04-15T22:53:39.048Z,11.37
2023-04-15T22:56:08.387Z,13.47
2023-04-15T22:58:49.150Z,10.23
2023-04-15T23:01:20.764Z,13.27
2023-04-15T23:03:57.155Z,14.37
2023-04-15T23:06:34.026Z,13.63
2023-04-15T23:09:01.966Z,15.13
2023-04-15T23:11:30.150Z,13.87
2023-04-15T23:13:58.212Z,16.60
2023-04-15T23:16:26.559Z,14.47
2023-04-15T23:18:59.078Z,17.03
2023-04-15T23:21:29.847Z,17.00
2023-04-15T23:23:59.275Z,18.47
2023-04-15T23:26:31.421Z,18.77
2023-04-15T23:28:59.461Z,20.37
2023-04-15T23:31:27.554Z,22.97
2023-04-15T23:33:55.597Z,25.53
2023-04-15T23:36:25.293Z,23.00
2023-04-15T23:38:53.301Z,24.23
2023-04-15T23:41:22.696Z,26.97
2023-04-15T23:43:53.272Z,25.73
2023-04-15T23:46:21.471Z,29.40
2023-04-15T23:48:49.717Z,28.63
2023-04-15T23:51:18.059Z,26.37
2023-04-15T23:53:48.500Z,26.03
2023-04-15T23:56:16.627Z,23.33
2023-04-15T23:58:53.614Z,29.03
